Hc Nadja Maria — V2AV4 — position and weather

sailwx.info

Track history (hours):
 
Tides and Currents Weather Stations Pressure Air Temp Water Temp Dewpoint Dewpoint Depression Visibility Wind Speed Wind Dir Waves Ship Positions

Hc Nadja Maria

Last reported at 2017-Jan-18 01:33 UTC. Time now 2017-Jan-18 01:43 UTC.
Position N 37°18' E 011°33'.

Length 130 m; draft 7.6 m.

Type: Cargo ship. MMSI: 304204000.

Date/timePositionNaut miles runAvg speedWind from/ knotsBaromVisibWave heightAir tempDewpointWater temp
2017-Jan-18 01:33N 37°18' E 011°33'1110.3
2017-Jan-18 00:31N 37°13' E 011°45'1010.2
2017-Jan-17 23:32N 37°08' E 011°56'10111.1
2017-Jan-17 14:23N 36°20' E 013°47'810.0
2017-Jan-17 13:33N 36°17' E 013°57'9 9.0
2017-Jan-17 12:33N 36°12' E 014°06'10 9.5
2017-Jan-17 11:33N 36°07' E 014°16'9 9.2
2017-Jan-17 10:32N 35°60' E 014°24'0 0.1
2017-Jan-17 09:32N 35°60' E 014°24'0 0.0
2017-Jan-17 08:32N 35°60' E 014°24'0 0.0
2017-Jan-17 07:32N 35°60' E 014°24'0 0.0
2017-Jan-17 06:32N 35°60' E 014°24'0 0.1
2017-Jan-17 05:32N 35°60' E 014°24'0 0.0
2017-Jan-17 04:32N 35°60' E 014°24'0 0.0
2017-Jan-17 03:32N 35°60' E 014°24'0 0.0
2017-Jan-17 02:33N 35°60' E 014°24'0 0.0
2017-Jan-17 01:33N 35°60' E 014°24'0 0.0
2017-Jan-17 00:33N 35°60' E 014°24'0 0.0
2017-Jan-16 23:33N 35°60' E 014°24'0 0.0
2017-Jan-16 22:33N 35°60' E 014°24'0 0.0
2017-Jan-16 21:33N 35°60' E 014°24'0 0.0
2017-Jan-16 20:33N 35°60' E 014°24'0 0.0
2017-Jan-16 19:33N 35°60' E 014°24'0 0.1
2017-Jan-16 18:33N 35°60' E 014°24'0 0.0
2017-Jan-16 17:33N 35°60' E 014°24'0 0.1
2017-Jan-16 16:33N 35°60' E 014°24'0 0.0
2017-Jan-16 15:33N 35°60' E 014°24'0 0.0
2017-Jan-16 14:27N 35°60' E 014°24'0 0.0
2017-Jan-16 13:33N 35°60' E 014°24'0 0.0
2017-Jan-16 12:33N 35°60' E 014°24'0 0.0
2017-Jan-16 11:33N 35°60' E 014°24'0 0.1
2017-Jan-16 10:33N 35°60' E 014°24'0 0.0
2017-Jan-16 09:33N 35°60' E 014°24'5 5.2
2017-Jan-16 08:32N 35°59' E 014°30'10 9.3
2017-Jan-16 07:26N 35°49' E 014°35'40210.6
2017-Jan-14 17:33N 36°24' E 022°51'1211.5
2017-Jan-14 16:33N 36°25' E 023°06'1110.9
2017-Jan-14 15:33N 36°31' E 023°17'1212.4
2017-Jan-14 14:33N 36°41' E 023°25'1212.1
2017-Jan-14 13:33N 36°51' E 023°34'1212.1
2017-Jan-14 12:33N 37°01' E 023°42'1211.8
2017-Jan-14 11:33N 37°12' E 023°50'1211.7
2017-Jan-14 10:33N 37°22' E 023°57'1111.5
2017-Jan-14 09:33N 37°31' E 024°05'1211.9
2017-Jan-14 08:33N 37°41' E 024°13'1212.1
2017-Jan-14 07:33N 37°49' E 024°25'1313.4
2017-Jan-14 06:33N 37°59' E 024°36'  
Track history (hours):
 
Tides and Currents Weather Stations Pressure Air Temp Water Temp Dewpoint Dewpoint Depression Visibility Wind Speed Wind Dir Waves Ship Positions

Hc Nadja Maria

Last reported at 2017-Jan-18 01:33 UTC. Time now 2017-Jan-18 01:43 UTC.
Position N 37°18' E 011°33'.

Length 130 m; draft 7.6 m.

Type: Cargo ship. MMSI: 304204000.

Date/timePositionNaut miles runAvg speedWind from/ knotsBaromVisibWave heightAir tempDewpointWater temp
2017-Jan-18 01:33N 37°18' E 011°33'1110.3
2017-Jan-18 00:31N 37°13' E 011°45'1010.2
2017-Jan-17 23:32N 37°08' E 011°56'10111.1
2017-Jan-17 14:23N 36°20' E 013°47'810.0
2017-Jan-17 13:33N 36°17' E 013°57'9 9.0
2017-Jan-17 12:33N 36°12' E 014°06'10 9.5
2017-Jan-17 11:33N 36°07' E 014°16'9 9.2
2017-Jan-17 10:32N 35°60' E 014°24'0 0.1
2017-Jan-17 09:32N 35°60' E 014°24'0 0.0
2017-Jan-17 08:32N 35°60' E 014°24'0 0.0
2017-Jan-17 07:32N 35°60' E 014°24'0 0.0
2017-Jan-17 06:32N 35°60' E 014°24'0 0.1
2017-Jan-17 05:32N 35°60' E 014°24'0 0.0
2017-Jan-17 04:32N 35°60' E 014°24'0 0.0
2017-Jan-17 03:32N 35°60' E 014°24'0 0.0
2017-Jan-17 02:33N 35°60' E 014°24'0 0.0
2017-Jan-17 01:33N 35°60' E 014°24'0 0.0
2017-Jan-17 00:33N 35°60' E 014°24'0 0.0
2017-Jan-16 23:33N 35°60' E 014°24'0 0.0
2017-Jan-16 22:33N 35°60' E 014°24'0 0.0
2017-Jan-16 21:33N 35°60' E 014°24'0 0.0
2017-Jan-16 20:33N 35°60' E 014°24'0 0.0
2017-Jan-16 19:33N 35°60' E 014°24'0 0.1
2017-Jan-16 18:33N 35°60' E 014°24'0 0.0
2017-Jan-16 17:33N 35°60' E 014°24'0 0.1
2017-Jan-16 16:33N 35°60' E 014°24'0 0.0
2017-Jan-16 15:33N 35°60' E 014°24'0 0.0
2017-Jan-16 14:27N 35°60' E 014°24'0 0.0
2017-Jan-16 13:33N 35°60' E 014°24'0 0.0
2017-Jan-16 12:33N 35°60' E 014°24'0 0.0
2017-Jan-16 11:33N 35°60' E 014°24'0 0.1
2017-Jan-16 10:33N 35°60' E 014°24'0 0.0
2017-Jan-16 09:33N 35°60' E 014°24'5 5.2
2017-Jan-16 08:32N 35°59' E 014°30'10 9.3
2017-Jan-16 07:26N 35°49' E 014°35'40210.6
2017-Jan-14 17:33N 36°24' E 022°51'1211.5
2017-Jan-14 16:33N 36°25' E 023°06'1110.9
2017-Jan-14 15:33N 36°31' E 023°17'1212.4
2017-Jan-14 14:33N 36°41' E 023°25'1212.1
2017-Jan-14 13:33N 36°51' E 023°34'1212.1
2017-Jan-14 12:33N 37°01' E 023°42'1211.8
2017-Jan-14 11:33N 37°12' E 023°50'1211.7
2017-Jan-14 10:33N 37°22' E 023°57'1111.5
2017-Jan-14 09:33N 37°31' E 024°05'1211.9
2017-Jan-14 08:33N 37°41' E 024°13'1212.1
2017-Jan-14 07:33N 37°49' E 024°25'1313.4
2017-Jan-14 06:33N 37°59' E 024°36'  

Dump ship's entire track history